createdAt,value
2023-04-26T00:01:58.932Z,101242.25
2023-04-26T00:04:26.326Z,101248.50
2023-04-26T00:06:53.330Z,101247.81
2023-04-26T00:09:20.462Z,101253.31
2023-04-26T00:11:47.455Z,101259.44
2023-04-26T00:14:14.432Z,101253.44
2023-04-26T00:16:41.519Z,101259.69
2023-04-26T00:19:10.719Z,101248.91
2023-04-26T00:21:38.054Z,101258.84
2023-04-26T00:24:05.974Z,101260.66
2023-04-26T00:26:34.488Z,101251.03
2023-04-26T00:29:05.830Z,101246.94
2023-04-26T00:31:33.234Z,101253.41
2023-04-26T00:34:00.367Z,101254.28
2023-04-26T00:36:27.940Z,101256.00
2023-04-26T00:38:55.103Z,101251.75
2023-04-26T00:41:22.739Z,101237.28
2023-04-26T00:43:49.807Z,101243.78
2023-04-26T00:46:17.183Z,101237.56
2023-04-26T00:48:45.120Z,101237.56
2023-04-26T00:51:13.457Z,101235.00
2023-04-26T00:53:41.415Z,101244.22
2023-04-26T00:56:10.254Z,101245.19
2023-04-26T00:58:37.961Z,101249.59
2023-04-26T01:01:05.069Z,101245.47
2023-04-26T01:03:32.244Z,101243.78
2023-04-26T01:06:01.145Z,101248.28
2023-04-26T01:08:28.164Z,101246.72
2023-04-26T01:10:59.199Z,101245.03
2023-04-26T01:13:26.857Z,101244.28
2023-04-26T01:15:56.325Z,101230.94
2023-04-26T01:18:23.503Z,101231.78
2023-04-26T01:20:52.210Z,101241.47
2023-04-26T01:23:19.344Z,101249.28
2023-04-26T01:25:46.378Z,101247.16
2023-04-26T01:28:13.396Z,101243.78
2023-04-26T01:30:40.300Z,101235.41
2023-04-26T01:33:07.705Z,101227.06
2023-04-26T01:35:34.755Z,101228.75
2023-04-26T01:38:02.789Z,101223.97
2023-04-26T01:40:29.816Z,101217.56
2023-04-26T01:42:57.074Z,101224.53
2023-04-26T01:45:24.274Z,101235.31
2023-04-26T01:48:10.207Z,101226.50
2023-04-26T01:50:37.209Z,101237.03
2023-04-26T01:53:04.212Z,101226.38
2023-04-26T01:55:31.169Z,101229.06
2023-04-26T01:57:58.086Z,101220.88
2023-04-26T02:00:25.139Z,101227.94
2023-04-26T02:02:55.625Z,101231.34
2023-04-26T02:05:24.592Z,101219.16
2023-04-26T02:07:51.701Z,101222.84
2023-04-26T02:10:18.785Z,101220.44
2023-04-26T02:12:45.832Z,101224.97
2023-04-26T02:15:12.859Z,101225.09
2023-04-26T02:17:39.949Z,101217.13
2023-04-26T02:20:10.509Z,101218.28
2023-04-26T02:22:37.652Z,101211.19
2023-04-26T02:25:05.579Z,101212.91
2023-04-26T02:27:33.867Z,101213.88
2023-04-26T02:30:01.114Z,101214.84
2023-04-26T02:32:28.204Z,101207.50
2023-04-26T02:34:57.491Z,101202.13
2023-04-26T02:37:24.788Z,101196.75
2023-04-26T02:39:52.315Z,101194.78
2023-04-26T02:42:19.410Z,101196.75
2023-04-26T02:44:47.427Z,101199.31
2023-04-26T02:47:14.533Z,101196.44
2023-04-26T02:49:41.478Z,101194.50
2023-04-26T02:52:08.551Z,101203.28
2023-04-26T02:54:36.518Z,101204.28
2023-04-26T02:57:04.456Z,101211.63
2023-04-26T02:59:31.600Z,101219.69
2023-04-26T03:01:58.575Z,101222.69
2023-04-26T03:04:25.882Z,101214.31
2023-04-26T03:06:52.900Z,101219.97
2023-04-26T03:09:20.070Z,101225.38
2023-04-26T03:11:49.605Z,101231.59
2023-04-26T03:14:18.065Z,101221.94
2023-04-26T03:16:48.624Z,101217.13
2023-04-26T03:19:16.201Z,101210.94
2023-04-26T03:21:44.103Z,101206.25
2023-04-26T03:24:11.795Z,101199.03
2023-04-26T03:26:38.993Z,101194.50
2023-04-26T03:29:06.957Z,101192.78
2023-04-26T03:31:33.915Z,101199.16
2023-04-26T03:34:01.131Z,101190.78
2023-04-26T03:36:30.924Z,101188.22
2023-04-26T03:38:58.031Z,101189.22
2023-04-26T03:41:25.180Z,101189.47
2023-04-26T03:43:53.748Z,101191.44
2023-04-26T03:46:21.068Z,101186.03
2023-04-26T03:48:48.826Z,101173.72
2023-04-26T03:51:16.743Z,101180.22
2023-04-26T03:53:43.827Z,101183.94
2023-04-26T03:56:10.860Z,101189.31
2023-04-26T03:58:37.983Z,101201.75
2023-04-26T04:01:05.114Z,101196.38
2023-04-26T04:03:32.329Z,101200.31
2023-04-26T04:05:59.528Z,101203.31
2023-04-26T04:08:26.494Z,101197.63
2023-04-26T04:10:53.534Z,101195.94
2023-04-26T04:13:20.510Z,101203.00
2023-04-26T04:15:47.649Z,101198.63
2023-04-26T04:18:14.706Z,101201.06
2023-04-26T04:20:42.069Z,101203.19
2023-04-26T04:23:10.193Z,101207.53
2023-04-26T04:25:39.623Z,101204.00
2023-04-26T04:28:09.680Z,101201.31
2023-04-26T04:30:37.042Z,101204.84
2023-04-26T04:33:05.496Z,101206.69
2023-04-26T04:35:34.350Z,101204.59
2023-04-26T04:38:04.432Z,101208.41
2023-04-26T04:40:50.590Z,101208.28
2023-04-26T04:43:18.512Z,101212.06
2023-04-26T04:45:46.523Z,101206.44
2023-04-26T04:48:13.563Z,101215.50
2023-04-26T04:50:40.677Z,101209.13
2023-04-26T04:53:09.159Z,101218.19
2023-04-26T04:55:36.797Z,101223.44
2023-04-26T04:58:04.333Z,101221.16
2023-04-26T05:00:32.818Z,101228.66
2023-04-26T05:03:11.468Z,101232.38
2023-04-26T05:05:38.737Z,101230.66
2023-04-26T05:08:07.961Z,101228.66
2023-04-26T05:10:36.215Z,101230.38
2023-04-26T05:13:03.612Z,101237.47
2023-04-26T05:15:30.732Z,101241.72
2023-04-26T05:17:59.697Z,101247.94
2023-04-26T05:20:26.918Z,101248.59
2023-04-26T05:22:55.135Z,101245.88
2023-04-26T05:25:23.011Z,101248.28
2023-04-26T05:27:56.796Z,101256.09
2023-04-26T05:30:53.378Z,101257.38
2023-04-26T05:33:40.363Z,101257.81
2023-04-26T05:36:30.335Z,101275.28
2023-04-26T05:38:57.555Z,101259.25
2023-04-26T05:41:24.617Z,101271.03
2023-04-26T05:43:52.240Z,101275.88
2023-04-26T05:46:19.490Z,101279.84
2023-04-26T05:48:46.677Z,101278.34
2023-04-26T05:51:13.805Z,101285.56
2023-04-26T05:53:41.797Z,101297.22
2023-04-26T05:56:08.723Z,101292.97
2023-04-26T05:58:35.842Z,101296.22
2023-04-26T06:01:05.301Z,101294.44
2023-04-26T06:03:33.768Z,101298.41
2023-04-26T06:06:01.522Z,101296.97
2023-04-26T06:08:28.784Z,101295.47
2023-04-26T06:10:55.777Z,101296.56
2023-04-26T06:13:22.776Z,101303.19
2023-04-26T06:15:49.747Z,101316.88
2023-04-26T06:18:16.797Z,101304.22
2023-04-26T06:20:43.735Z,101302.88
2023-04-26T06:23:10.797Z,101305.00
2023-04-26T06:25:37.958Z,101312.25
2023-04-26T06:28:05.083Z,101321.88
2023-04-26T06:30:32.312Z,101317.59
2023-04-26T06:33:00.427Z,101314.97
2023-04-26T06:35:27.766Z,101322.81
2023-04-26T06:37:54.798Z,101322.50
2023-04-26T06:40:22.358Z,101320.69
2023-04-26T06:42:49.464Z,101321.94
2023-04-26T06:45:17.235Z,101319.03
2023-04-26T06:47:45.837Z,101324.28
2023-04-26T06:50:13.290Z,101317.78
2023-04-26T06:52:40.236Z,101324.44
2023-04-26T06:55:07.805Z,101329.94
2023-04-26T06:57:34.731Z,101324.91
2023-04-26T07:00:02.046Z,101323.09
2023-04-26T07:02:29.177Z,101326.72
2023-04-26T07:04:56.610Z,101322.28
2023-04-26T07:07:23.850Z,101328.03
2023-04-26T07:09:50.839Z,101334.78
2023-04-26T07:12:17.736Z,101333.69
2023-04-26T07:14:44.715Z,101323.88
2023-04-26T07:17:11.827Z,101326.50
2023-04-26T07:19:38.912Z,101329.22
2023-04-26T07:22:06.168Z,101330.06
2023-04-26T07:24:33.271Z,101332.97
2023-04-26T07:27:00.231Z,101333.56
2023-04-26T07:29:27.218Z,101326.25
2023-04-26T07:31:54.235Z,101323.22
2023-04-26T07:34:21.384Z,101320.75
2023-04-26T07:36:48.422Z,101323.28
2023-04-26T07:39:15.904Z,101320.78
2023-04-26T07:41:44.179Z,101324.34
2023-04-26T07:44:11.577Z,101324.78
2023-04-26T07:46:38.689Z,101326.03
2023-04-26T07:49:06.015Z,101331.06
2023-04-26T07:51:33.528Z,101336.50
2023-04-26T07:54:00.762Z,101340.94
2023-04-26T07:56:27.708Z,101341.59
2023-04-26T07:58:54.682Z,101331.06
2023-04-26T08:01:21.969Z,101336.00
2023-04-26T08:03:49.415Z,101340.09
2023-04-26T08:06:16.982Z,101332.50
2023-04-26T08:08:50.750Z,101332.44
2023-04-26T08:11:18.396Z,101335.03
2023-04-26T08:13:45.532Z,101333.97
2023-04-26T08:16:12.748Z,101338.00
2023-04-26T08:18:40.383Z,101344.41
2023-04-26T08:21:07.300Z,101336.81
2023-04-26T08:23:38.429Z,101358.66
2023-04-26T08:26:06.618Z,101348.66
2023-04-26T08:28:33.675Z,101352.19
2023-04-26T08:31:00.681Z,101362.13
2023-04-26T08:33:27.686Z,101360.34
2023-04-26T08:35:54.568Z,101346.31
2023-04-26T08:38:22.864Z,101351.84
2023-04-26T08:40:51.691Z,101359.16
2023-04-26T08:43:18.602Z,101371.25
2023-04-26T08:45:49.336Z,101371.28
2023-04-26T08:48:18.431Z,101361.69
2023-04-26T08:50:46.759Z,101369.34
2023-04-26T08:53:18.644Z,101369.25
2023-04-26T08:55:49.898Z,101380.00
2023-04-26T08:58:20.424Z,101383.09
2023-04-26T09:00:48.126Z,101388.78
2023-04-26T09:03:15.310Z,101383.50
2023-04-26T09:05:45.985Z,101382.50
2023-04-26T09:08:19.372Z,101394.50
2023-04-26T09:10:46.633Z,101394.50
2023-04-26T09:13:14.617Z,101390.50
2023-04-26T09:15:42.212Z,101400.56
2023-04-26T09:18:20.424Z,101398.50
2023-04-26T09:21:03.034Z,101410.03
2023-04-26T09:23:30.038Z,101405.09
2023-04-26T09:25:56.925Z,101407.31
2023-04-26T09:28:24.742Z,101395.34
2023-04-26T09:30:51.756Z,101398.22
2023-04-26T09:33:19.649Z,101414.44
2023-04-26T09:35:46.642Z,101409.28
2023-04-26T09:38:14.831Z,101403.72
2023-04-26T09:40:46.882Z,101417.81
2023-04-26T09:43:18.876Z,101409.91
2023-04-26T09:45:57.186Z,101406.47
2023-04-26T09:48:26.249Z,101420.94
2023-04-26T09:50:55.373Z,101428.81
2023-04-26T09:53:50.311Z,101428.94
2023-04-26T09:56:19.863Z,101427.09
2023-04-26T09:58:46.685Z,101427.41
2023-04-26T10:01:18.945Z,101429.59
2023-04-26T10:03:47.628Z,101446.41
2023-04-26T10:06:15.628Z,101443.66
2023-04-26T10:08:43.173Z,101429.88
2023-04-26T10:11:14.029Z,101425.47
2023-04-26T10:13:42.384Z,101428.63
2023-04-26T10:16:12.573Z,101445.00
2023-04-26T10:18:39.636Z,101424.47
2023-04-26T10:21:17.059Z,101436.50
2023-04-26T10:23:44.864Z,101426.78
2023-04-26T10:26:53.499Z,101435.03
2023-04-26T10:29:22.312Z,101420.56
2023-04-26T10:32:18.653Z,101413.97
2023-04-26T10:35:05.782Z,101410.56
2023-04-26T10:37:32.790Z,101412.78
2023-04-26T10:40:27.526Z,101419.91
2023-04-26T10:43:30.022Z,101408.34
2023-04-26T10:45:57.136Z,101422.94
2023-04-26T10:48:32.014Z,101409.06
2023-04-26T10:51:02.454Z,101417.19
2023-04-26T10:53:31.410Z,101408.03
2023-04-26T10:55:58.701Z,101411.44
2023-04-26T10:58:35.843Z,101401.25
2023-04-26T11:01:16.603Z,101406.63
2023-04-26T11:03:59.366Z,101400.13
2023-04-26T11:06:29.910Z,101410.94
2023-04-26T11:09:00.121Z,101406.75
2023-04-26T11:11:28.964Z,101403.97
2023-04-26T11:13:56.804Z,101397.72
2023-04-26T11:16:26.920Z,101397.41
2023-04-26T11:18:55.880Z,101396.28
2023-04-26T11:21:22.820Z,101384.75
2023-04-26T11:23:56.110Z,101397.72
2023-04-26T11:26:24.793Z,101385.00
2023-04-26T11:28:52.337Z,101390.59
2023-04-26T11:31:19.800Z,101378.63
2023-04-26T11:33:49.918Z,101399.25
2023-04-26T11:36:19.873Z,101384.25
2023-04-26T11:38:46.982Z,101385.28
2023-04-26T11:41:14.089Z,101372.06
2023-04-26T11:43:42.173Z,101375.59
2023-04-26T11:46:10.360Z,101382.16
2023-04-26T11:48:38.622Z,101367.63
2023-04-26T11:51:07.781Z,101359.47
2023-04-26T11:53:40.638Z,101366.19
2023-04-26T11:56:33.996Z,101354.25
2023-04-26T11:59:02.038Z,101357.38
2023-04-26T12:01:30.166Z,101353.06
2023-04-26T12:03:59.937Z,101349.50
2023-04-26T12:06:45.896Z,101349.84
2023-04-26T12:09:13.430Z,101353.22
2023-04-26T12:11:40.731Z,101353.06
2023-04-26T12:14:11.596Z,101353.06
2023-04-26T12:16:38.743Z,101337.63
2023-04-26T12:19:07.345Z,101341.16
2023-04-26T12:21:42.638Z,101357.47
2023-04-26T12:24:34.435Z,101349.59
2023-04-26T12:27:03.045Z,101344.00
2023-04-26T12:29:33.765Z,101358.06
2023-04-26T12:32:01.504Z,101352.81
2023-04-26T12:34:28.887Z,101347.69
2023-04-26T12:36:55.972Z,101358.00
2023-04-26T12:39:22.957Z,101346.47
2023-04-26T12:41:49.931Z,101346.31
2023-04-26T12:44:17.613Z,101347.59
2023-04-26T12:46:46.537Z,101345.84
2023-04-26T12:49:13.557Z,101340.81
2023-04-26T12:51:40.866Z,101341.13
2023-04-26T12:54:08.036Z,101342.72
2023-04-26T12:56:38.619Z,101339.28
2023-04-26T12:59:05.814Z,101343.31
2023-04-26T13:01:32.905Z,101329.44
2023-04-26T13:04:01.460Z,101333.81
2023-04-26T13:06:28.808Z,101344.16
2023-04-26T13:08:55.964Z,101342.81
2023-04-26T13:11:23.223Z,101334.41
2023-04-26T13:13:50.461Z,101345.75
2023-04-26T13:16:17.533Z,101345.31
2023-04-26T13:18:44.536Z,101357.00
2023-04-26T13:21:11.530Z,101345.78
2023-04-26T13:23:38.420Z,101341.38
2023-04-26T13:26:05.518Z,101321.03
2023-04-26T13:28:32.620Z,101332.41
2023-04-26T13:30:59.816Z,101325.25
2023-04-26T13:33:27.404Z,101325.09
2023-04-26T13:35:54.351Z,101307.41
2023-04-26T13:38:21.583Z,101308.78
2023-04-26T13:40:48.700Z,101331.56
2023-04-26T13:43:15.669Z,101314.03
2023-04-26T13:45:43.288Z,101318.72
2023-04-26T13:48:10.305Z,101318.50
2023-04-26T13:50:37.356Z,101307.88
2023-04-26T13:53:04.705Z,101314.00
2023-04-26T13:55:31.865Z,101308.28
2023-04-26T13:57:59.228Z,101309.00
2023-04-26T14:00:26.406Z,101302.66
2023-04-26T14:02:54.461Z,101302.00
2023-04-26T14:05:21.907Z,101300.09
2023-04-26T14:07:55.481Z,101303.97
2023-04-26T14:10:22.547Z,101292.34
2023-04-26T14:12:49.849Z,101290.28
2023-04-26T14:15:16.888Z,101294.91
2023-04-26T14:17:46.801Z,101298.50
2023-04-26T14:20:13.881Z,101278.03
2023-04-26T14:22:40.857Z,101279.03
2023-04-26T14:25:08.175Z,101275.53
2023-04-26T14:27:41.638Z,101277.47
2023-04-26T14:30:08.947Z,101273.00
2023-04-26T14:32:36.023Z,101275.84
2023-04-26T14:35:03.066Z,101279.28
2023-04-26T14:37:29.992Z,101282.59
2023-04-26T14:39:57.058Z,101269.09
2023-04-26T14:42:24.090Z,101259.56
2023-04-26T14:44:51.379Z,101261.84
2023-04-26T14:47:18.305Z,101260.66
2023-04-26T14:49:45.235Z,101258.78
2023-04-26T14:52:12.255Z,101251.44
2023-04-26T14:54:39.874Z,101256.94
2023-04-26T14:57:07.139Z,101255.53
2023-04-26T14:59:34.540Z,101252.00
2023-04-26T15:02:01.488Z,101250.25
2023-04-26T15:04:29.208Z,101249.72
2023-04-26T15:06:57.083Z,101250.34
2023-04-26T15:09:24.143Z,101254.69
2023-04-26T15:11:51.050Z,101255.00
2023-04-26T15:14:18.366Z,101253.84
2023-04-26T15:16:45.413Z,101242.72
2023-04-26T15:19:12.406Z,101239.84
2023-04-26T15:21:39.428Z,101242.09
2023-04-26T15:24:07.826Z,101240.28
2023-04-26T15:26:34.876Z,101248.47
2023-04-26T15:29:02.054Z,101243.38
2023-04-26T15:31:29.051Z,101241.94
2023-04-26T15:33:58.878Z,101234.69
2023-04-26T15:36:26.088Z,101234.25
2023-04-26T15:38:53.178Z,101227.16
2023-04-26T15:41:20.418Z,101223.72
2023-04-26T15:43:54.380Z,101215.59
2023-04-26T15:46:22.170Z,101217.63
2023-04-26T15:48:49.136Z,101211.34
2023-04-26T15:51:16.454Z,101218.81
2023-04-26T15:53:44.187Z,101215.88
2023-04-26T15:56:15.667Z,101225.00
2023-04-26T15:58:44.767Z,101216.63
2023-04-26T16:01:12.416Z,101214.13
2023-04-26T16:03:39.906Z,101212.03
2023-04-26T16:06:08.131Z,101205.25
2023-04-26T16:11:06.141Z,101207.00
2023-04-26T16:13:40.219Z,101211.03
2023-04-26T16:16:11.259Z,101230.03
2023-04-26T16:18:39.912Z,101233.13
2023-04-26T16:21:09.956Z,101231.09
2023-04-26T16:23:37.323Z,101228.75
2023-04-26T16:26:04.890Z,101227.78
2023-04-26T16:28:32.217Z,101231.72
2023-04-26T16:30:59.229Z,101232.78
2023-04-26T16:33:26.835Z,101234.44
2023-04-26T16:35:55.240Z,101224.75
2023-04-26T16:38:23.084Z,101226.31
2023-04-26T16:41:01.539Z,101235.84
2023-04-26T16:43:30.383Z,101240.94
2023-04-26T16:46:05.404Z,101233.09
2023-04-26T16:48:37.140Z,101231.47
2023-04-26T16:51:07.669Z,101238.47
2023-04-26T16:53:36.068Z,101236.06
2023-04-26T16:56:03.664Z,101231.78
2023-04-26T16:58:30.654Z,101228.75
2023-04-26T17:00:58.219Z,101232.41
2023-04-26T17:03:25.874Z,101220.66
2023-04-26T17:05:53.347Z,101219.84
2023-04-26T17:08:20.659Z,101229.72
2023-04-26T17:10:48.204Z,101221.56
2023-04-26T17:13:15.371Z,101224.19
2023-04-26T17:15:42.889Z,101223.72
2023-04-26T17:18:11.126Z,101227.66
2023-04-26T17:20:38.408Z,101234.44
2023-04-26T17:23:05.710Z,101219.94
2023-04-26T17:25:32.637Z,101229.72
2023-04-26T17:27:59.648Z,101236.44
2023-04-26T17:30:26.738Z,101222.94
2023-04-26T17:32:53.808Z,101226.81
2023-04-26T17:35:20.942Z,101224.94
2023-04-26T17:37:50.259Z,101227.66
2023-04-26T17:40:18.774Z,101225.25
2023-04-26T17:42:46.812Z,101241.41
2023-04-26T17:45:14.751Z,101241.41
2023-04-26T17:47:45.666Z,101245.50
2023-04-26T17:50:12.781Z,101240.41
2023-04-26T17:52:39.789Z,101235.53
2023-04-26T17:55:09.625Z,101234.16
2023-04-26T17:57:37.413Z,101238.56
2023-04-26T18:00:10.030Z,101243.13
2023-04-26T18:02:37.550Z,101251.50
2023-04-26T18:05:06.049Z,101247.66
2023-04-26T18:07:33.076Z,101243.72
2023-04-26T18:09:59.970Z,101246.38
2023-04-26T18:12:28.058Z,101245.72
2023-04-26T18:14:55.018Z,101251.38
2023-04-26T18:17:22.088Z,101246.81
2023-04-26T18:19:49.200Z,101258.34
2023-04-26T18:22:16.285Z,101265.69
2023-04-26T18:24:43.264Z,101256.94
2023-04-26T18:27:12.529Z,101264.38
2023-04-26T18:29:39.768Z,101267.81
2023-04-26T18:32:06.697Z,101270.75
2023-04-26T18:34:33.642Z,101272.34
2023-04-26T18:37:00.651Z,101269.91
2023-04-26T18:39:27.624Z,101254.91
2023-04-26T18:41:54.569Z,101253.06
2023-04-26T18:44:21.602Z,101255.09
2023-04-26T18:46:48.813Z,101270.69
2023-04-26T18:49:15.849Z,101260.47
2023-04-26T18:51:44.094Z,101262.88
2023-04-26T18:54:11.154Z,101264.59
2023-04-26T18:56:38.510Z,101271.94
2023-04-26T18:59:05.776Z,101285.28
2023-04-26T19:01:33.022Z,101288.72
2023-04-26T19:04:00.148Z,101278.94
2023-04-26T19:06:28.273Z,101285.59
2023-04-26T19:08:55.295Z,101293.97
2023-04-26T19:11:22.396Z,101307.03
2023-04-26T19:13:49.369Z,101305.63
2023-04-26T19:16:16.373Z,101305.06
2023-04-26T19:18:44.383Z,101310.91
2023-04-26T19:21:14.927Z,101322.53
2023-04-26T19:23:43.550Z,101327.63
2023-04-26T19:26:15.162Z,101320.91
2023-04-26T19:28:42.483Z,101330.19
2023-04-26T19:31:09.497Z,101321.69
2023-04-26T19:33:37.223Z,101321.94
2023-04-26T19:36:08.868Z,101331.00
2023-04-26T19:38:35.941Z,101331.69
2023-04-26T19:41:02.922Z,101330.44
2023-04-26T19:43:29.983Z,101336.41
2023-04-26T19:45:56.976Z,101345.38
2023-04-26T19:48:24.038Z,101341.84
2023-04-26T19:50:51.032Z,101350.19
2023-04-26T19:53:17.953Z,101352.34
2023-04-26T19:55:45.393Z,101358.44
2023-04-26T19:58:12.650Z,101359.13
2023-04-26T20:00:40.470Z,101363.25
2023-04-26T20:03:07.872Z,101357.16
2023-04-26T20:05:35.101Z,101359.13
2023-04-26T20:08:02.811Z,101351.78
2023-04-26T20:10:34.363Z,101361.56
2023-04-26T20:13:01.608Z,101365.81
2023-04-26T20:15:30.451Z,101367.09
2023-04-26T20:17:58.803Z,101373.47
2023-04-26T20:20:25.785Z,101383.84
2023-04-26T20:22:52.817Z,101381.00
2023-04-26T20:25:22.421Z,101383.56
2023-04-26T20:27:49.564Z,101380.28
2023-04-26T20:30:16.781Z,101376.19
2023-04-26T20:32:44.419Z,101390.22
2023-04-26T20:35:13.750Z,101386.53
2023-04-26T20:40:23.096Z,101390.91
2023-04-26T20:42:50.017Z,101386.63
2023-04-26T20:45:18.033Z,101398.03
2023-04-26T20:47:47.183Z,101398.28
2023-04-26T20:50:14.285Z,101397.44
2023-04-26T20:52:41.609Z,101403.41
2023-04-26T20:55:08.767Z,101405.41
2023-04-26T20:57:36.432Z,101403.69
2023-04-26T21:00:06.515Z,101410.09
2023-04-26T21:02:33.738Z,101411.22
2023-04-26T21:05:01.117Z,101400.00
2023-04-26T21:07:28.103Z,101409.66
2023-04-26T21:09:55.033Z,101408.81
2023-04-26T21:12:22.078Z,101408.53
2023-04-26T21:14:49.292Z,101402.84
2023-04-26T21:17:16.398Z,101400.03
2023-04-26T21:19:43.621Z,101411.97
2023-04-26T21:22:10.909Z,101408.69
2023-04-26T21:24:38.054Z,101401.44
2023-04-26T21:27:05.107Z,101400.75
2023-04-26T21:29:32.234Z,101397.19
2023-04-26T21:31:59.264Z,101398.47
2023-04-26T21:34:26.447Z,101399.75
2023-04-26T21:36:54.535Z,101397.19
2023-04-26T21:39:21.930Z,101389.78
2023-04-26T21:41:48.979Z,101395.78
2023-04-26T21:44:15.860Z,101394.94
2023-04-26T21:46:42.955Z,101397.19
2023-04-26T21:49:16.551Z,101405.97
2023-04-26T21:51:43.592Z,101405.84
2023-04-26T21:54:10.569Z,101405.41
2023-04-26T21:56:42.778Z,101405.16
2023-04-26T21:59:18.094Z,101401.16
2023-04-26T22:01:45.136Z,101394.06
2023-04-26T22:04:12.511Z,101398.31
2023-04-26T22:06:39.650Z,101397.44
2023-04-26T22:09:09.765Z,101396.47
2023-04-26T22:11:37.854Z,101402.28
2023-04-26T22:14:04.909Z,101406.56
2023-04-26T22:16:32.117Z,101405.41
2023-04-26T22:18:59.207Z,101403.69
2023-04-26T22:21:27.068Z,101409.09
2023-04-26T22:23:54.230Z,101407.25
2023-04-26T22:26:21.683Z,101409.94
2023-04-26T22:28:48.638Z,101413.63
2023-04-26T22:31:16.060Z,101416.78
2023-04-26T22:33:43.833Z,101421.03
2023-04-26T22:36:11.505Z,101419.63
2023-04-26T22:38:38.632Z,101423.03
2023-04-26T22:41:07.623Z,101424.72
2023-04-26T22:43:36.105Z,101422.47
2023-04-26T22:46:03.196Z,101422.47
2023-04-26T22:48:30.267Z,101423.63
2023-04-26T22:50:57.660Z,101419.63
2023-04-26T22:53:24.555Z,101420.47
2023-04-26T22:55:52.045Z,101423.31
2023-04-26T22:58:19.117Z,101426.00
2023-04-26T23:00:46.089Z,101427.84
2023-04-26T23:03:13.560Z,101437.78
2023-04-26T23:05:41.255Z,101441.22
2023-04-26T23:08:08.220Z,101442.34
2023-04-26T23:10:35.193Z,101441.47
2023-04-26T23:13:02.636Z,101448.88
2023-04-26T23:15:29.594Z,101441.78
2023-04-26T23:17:56.682Z,101445.47
2023-04-26T23:20:27.803Z,101448.31
2023-04-26T23:22:54.969Z,101441.22
2023-04-26T23:25:22.802Z,101449.44
2023-04-26T23:27:50.195Z,101447.72
2023-04-26T23:30:18.016Z,101443.75
2023-04-26T23:32:45.757Z,101443.91
2023-04-26T23:35:12.752Z,101445.63
2023-04-26T23:37:39.984Z,101446.00
2023-04-26T23:40:10.771Z,101441.75
2023-04-26T23:42:38.023Z,101440.78
2023-04-26T23:45:05.587Z,101448.16
2023-04-26T23:47:32.865Z,101446.44
2023-04-26T23:50:00.321Z,101453.09
2023-04-26T23:52:27.802Z,101449.72
2023-04-26T23:54:55.121Z,101446.84
2023-04-26T23:57:22.097Z,101439.91
2023-04-26T23:59:49.057Z,101432.69
